Aviation Digital Data Service (ADDS)

Output produced by METARs form (1125 UTC 21 April 2018)
found at http://aviationweather.gov/adds/metars/
 
KOAJ 210527Z 2106/2206 VRB02KT P6SM SKC 
     FM211400 06007KT P6SM SKC AMD LTD TO CLD VIS AND WIND